Latest Weather Observations for Khancoban

IDN60801

Issued at 12:03 pm EST Thursday 28 May 2015 (issued every 30 minutes, with the page automatically refreshed every 10 minutes)

About weather observations | Map of weather stations | Latest weather observations for NSW | Other Formats
Station Details ID: 072162 Name: KHANCOBAN AWS Lat: -36.23 Lon: 148.14 Height: 339.3 m
Data from the previous 72 hours. | See also: Recent months at Khancoban
Date/Time
EST
Temp
°C
App
Temp
°C
Dew
Point
Rel
Hum
%
Delta-T
°C
Wind Press
QNH
hPa
Press
MSL
hPa
Rain
since 9 am
mm
Dir
 
Spd
km/h
Gust
km/h
Spd
kts
Gust
kts
28/12:00pm 10.7 10.1 10.5 99 0.1 NW 4 7 2 4 1022.0 1022.2 0.0
28/11:30am 10.5 10.3 10.5 100 0.0 W 2 7 1 4 1022.3 1022.5 0.0
28/11:00am 10.0 10.1 10.0 100 0.0 CALM 0 0 0 0 1022.9 1023.2 0.0
28/10:30am 9.8 9.8 9.8 100 0.0 CALM 0 0 0 0 1023.3 1023.6 0.0
28/10:00am 9.2 7.9 9.2 100 0.0 W 6 7 3 4 1023.5 1023.8 0.0
28/09:30am 9.0 8.8 9.0 100 0.0 CALM 0 0 0 0 1023.5 1023.8 0.0
28/09:00am 8.8 8.5 8.8 100 0.0 CALM 0 0 0 0 1023.6 1023.9 1.6
28/08:30am 8.5 7.4 8.5 100 0.0 SSE 4 7 2 4 1023.3 1023.6 1.6
28/08:00am 8.3 7.2 8.3 100 0.0 ESE 4 7 2 4 1023.2 1023.5 1.6
28/07:30am 7.9 7.4 7.9 100 0.0 CALM 0 0 0 0 1023.3 1023.6 1.6
28/07:00am 7.9 7.4 7.9 100 0.0 CALM 0 0 0 0 1023.0 1023.3 1.6
28/06:30am 7.8 7.3 7.8 100 0.0 CALM 0 0 0 0 1023.0 1023.3 1.6
28/06:00am 7.6 7.0 7.6 100 0.0 CALM 0 0 0 0 1022.7 1023.0 1.6
28/05:30am 8.0 7.5 8.0 100 0.0 CALM 0 0 0 0 1022.6 1022.9 1.6
28/05:00am 8.1 7.7 8.1 100 0.0 CALM 0 0 0 0 1022.5 1022.7 1.6
28/04:30am 7.7 5.8 7.7 100 0.0 SSW 7 11 4 6 1022.6 1022.9 1.6
28/04:00am 8.3 7.2 8.3 100 0.0 NE 4 7 2 4 1022.7 1023.0 1.6
28/03:30am 8.0 7.2 8.0 100 0.0 NW 2 7 1 4 1022.7 1023.0 1.6
28/03:00am 8.1 7.7 8.1 100 0.0 CALM 0 0 0 0 1022.4 1022.6 1.6
28/02:30am 8.1 7.7 8.1 100 0.0 CALM 0 0 0 0 1022.9 1023.2 1.6
28/02:00am 8.2 7.8 8.2 100 0.0 CALM 0 0 0 0 1023.1 1023.4 1.2
28/01:30am 8.2 7.8 8.2 100 0.0 CALM 0 0 0 0 1023.2 1023.5 1.2
28/01:00am 8.2 7.8 8.2 100 0.0 CALM 0 0 0 0 1023.4 1023.7 1.2
28/12:30am 8.1 7.7 8.1 100 0.0 CALM 0 0 0 0 1023.6 1023.9 1.2
28/12:00am 8.1 7.7 8.1 100 0.0 CALM 0 7 0 4 1023.6 1023.9 1.2
 
Date/Time
EST
Temp
°C
App
Temp
°C
Dew
Point
Rel
Hum
%
Delta-T
°C
Wind Press
QNH
hPa
Press
MSL
hPa
Rain
since 9 am
mm
Dir
 
Spd
km/h
Gust
km/h
Spd
kts
Gust
kts
27/11:30pm 8.3 7.2 8.3 100 0.0 S 4 7 2 4 1023.9 1024.2 1.2
27/11:00pm 8.3 7.9 8.3 100 0.0 CALM 0 0 0 0 1023.9 1024.2 1.2
27/10:30pm 8.6 8.3 8.6 100 0.0 CALM 0 0 0 0 1023.9 1024.2 1.2
27/10:00pm 8.4 6.9 8.4 100 0.0 SW 6 7 3 4 1024.2 1024.5 1.2
27/09:30pm 8.5 8.2 8.5 100 0.0 CALM 0 6 0 3 1024.2 1024.5 1.2
27/09:00pm 8.6 8.3 8.6 100 0.0 CALM 0 0 0 0 1024.2 1024.5 1.2
27/08:30pm 8.4 8.0 8.4 100 0.0 CALM 0 6 0 3 1024.2 1024.5 1.2
27/08:00pm 8.5 8.2 8.5 100 0.0 CALM 0 0 0 0 1024.2 1024.5 1.2
27/07:30pm 8.4 8.0 8.4 100 0.0 CALM 0 0 0 0 1024.3 1024.6 1.2
27/07:00pm 8.5 8.2 8.5 100 0.0 CALM 0 0 0 0 1024.1 1024.4 1.2
27/06:30pm 8.5 8.2 8.5 100 0.0 CALM 0 0 0 0 1023.7 1024.0 1.2
27/06:00pm 8.4 8.0 8.4 100 0.0 CALM 0 0 0 0 1023.6 1023.9 1.2
27/05:30pm 8.4 8.0 8.4 100 0.0 CALM 0 0 0 0 1023.4 1023.7 1.2
27/05:00pm 8.7 8.4 8.7 100 0.0 CALM 0 0 0 0 1023.3 1023.6 1.2
27/04:30pm 8.5 7.4 8.4 99 0.0 W 4 7 2 4 1023.3 1023.6 1.2
27/04:00pm 8.5 8.1 8.4 99 0.0 CALM 0 0 0 0 1023.3 1023.6 1.2
27/03:30pm 8.5 7.0 8.4 99 0.0 WNW 6 7 3 4 1023.4 1023.7 1.0
27/03:00pm 8.7 8.0 8.4 98 0.1 N 2 6 1 3 1023.3 1023.6 0.8
27/02:30pm 8.9 8.6 8.8 99 0.0 CALM 0 0 0 0 1023.5 1023.8 0.8
27/02:00pm 8.3 6.6 7.7 96 0.3 SSW 6 7 3 4 1023.7 1024.0 0.8
27/01:30pm 8.5 7.9 7.6 94 0.4 CALM 0 0 0 0 1024.0 1024.3 0.8
27/01:00pm 8.0 7.4 7.6 97 0.2 CALM 0 0 0 0 1024.4 1024.7 0.8
27/12:30pm 8.0 6.1 6.8 92 0.6 SW 6 9 3 5 1024.8 1025.0 0.4
27/12:00pm 8.3 6.5 7.2 93 0.5 WNW 6 9 3 5 1025.0 1025.2 0.2
27/11:30am 8.5 7.6 6.0 84 1.2 CALM 0 4 0 2 1025.4 1025.7 0.2
27/11:00am 8.9 6.7 6.0 82 1.3 WNW 7 11 4 6 1025.6 1025.9 0.0
27/10:30am 8.1 5.9 6.2 88 0.9 WNW 7 9 4 5 1025.8 1026.1 0.0
27/10:00am 7.7 5.5 6.2 90 0.7 N 7 9 4 5 1026.1 1026.4 0.0
27/09:30am 6.9 4.9 6.2 95 0.3 SSE 6 13 3 7 1026.0 1026.3 0.0
27/09:00am 5.8 4.4 5.7 99 0.0 SSW 2 9 1 5 1026.2 1026.5 0.0
27/08:30am 5.2 2.8 5.2 100 0.0 SSW 7 9 4 5 1026.7 1027.0 0.0
27/08:00am 4.4 3.2 4.4 100 0.0 CALM 0 0 0 0 1026.5 1026.8 0.0
27/07:30am 3.7 2.3 3.7 100 0.0 CALM 0 2 0 1 1026.0 1026.3 0.0
27/07:00am 4.0 1.5 4.0 100 0.0 NE 6 7 3 4 1025.8 1026.1 0.0
27/06:30am 3.2 1.7 3.2 100 0.0 CALM 0 0 0 0 1025.6 1025.9 0.0
27/06:00am 3.4 1.2 3.4 100 0.0 SSE 4 7 2 4 1025.4 1025.7 0.0
27/05:30am 3.2 1.0 3.1 99 0.0 S 4 7 2 4 1025.6 1025.9 0.0
27/05:00am 3.7 1.0 3.6 99 0.0 SSE 7 9 4 5 1025.2 1025.5 0.0
27/04:30am 4.3 1.9 4.2 99 0.0 NE 6 7 3 4 1025.0 1025.2 0.0
27/04:00am 4.7 2.4 4.6 99 0.0 N 6 7 3 4 1024.9 1025.1 0.0
27/03:30am 5.2 3.0 5.1 99 0.0 WSW 6 7 3 4 1024.9 1025.1 0.0
27/03:00am 5.7 3.4 5.6 99 0.0 NNE 7 9 4 5 1025.5 1025.8 0.0
27/02:30am 5.2 4.1 5.1 99 0.0 CALM 0 0 0 0 1025.8 1026.1 0.0
27/02:00am 5.7 3.9 5.6 99 0.0 WSW 4 7 2 4 1026.0 1026.3 0.0
27/01:30am 5.9 4.9 5.8 99 0.0 CALM 0 0 0 0 1026.1 1026.4 0.0
27/01:00am 5.9 3.6 5.8 99 0.0 NE 7 9 4 5 1026.4 1026.7 0.0
27/12:30am 5.6 3.4 5.5 99 0.0 WSW 6 7 3 4 1026.2 1026.5 0.0
27/12:00am 5.9 3.6 5.8 99 0.0 N 7 11 4 6 1026.5 1026.8 0.0
 
Date/Time
EST
Temp
°C
App
Temp
°C
Dew
Point
Rel
Hum
%
Delta-T
°C
Wind Press
QNH
hPa
Press
MSL
hPa
Rain
since 9 am
mm
Dir
 
Spd
km/h
Gust
km/h
Spd
kts
Gust
kts
26/11:30pm 6.0 3.3 5.7 98 0.1 SSW 9 11 5 6 1026.7 1027.0 0.0
26/11:00pm 6.3 4.5 5.6 95 0.3 E 4 6 2 3 1026.5 1026.8 0.0
26/10:30pm 6.1 4.7 5.7 97 0.2 N 2 7 1 4 1026.4 1026.7 0.0
26/10:00pm 6.0 4.2 5.6 97 0.2 N 4 7 2 4 1026.1 1026.4 0.0
26/09:30pm 6.7 4.5 6.0 95 0.3 NNE 7 9 4 5 1026.3 1026.6 0.0
26/09:00pm 6.8 4.2 6.1 95 0.3 SSW 9 13 5 7 1026.6 1026.9 0.0
26/08:30pm 6.3 5.0 6.2 99 0.0 W 2 7 1 4 1027.0 1027.3 0.0
26/08:00pm 6.7 5.5 6.3 97 0.2 NNW 2 7 1 4 1027.0 1027.3 0.0
26/07:30pm 6.1 3.9 5.4 95 0.3 WNW 6 7 3 4 1027.0 1027.3 0.0
26/07:00pm 7.1 5.8 6.0 93 0.5 SE 2 7 1 4 1027.0 1027.3 0.0
26/06:30pm 7.6 5.8 5.6 87 0.9 NNE 4 7 2 4 1026.6 1026.9 0.0
26/06:00pm 7.8 5.6 6.1 89 0.8 ENE 7 9 4 5 1026.6 1026.9 0.0
26/05:30pm 8.0 6.1 6.5 90 0.7 E 6 7 3 4 1026.5 1026.8 0.0
26/05:00pm 8.6 7.7 6.1 84 1.2 CALM 0 0 0 0 1026.8 1027.1 0.0
26/04:30pm 9.6 7.5 6.0 78 1.7 ENE 6 7 3 4 1026.5 1026.8 0.0
26/04:00pm 9.7 7.0 3.7 66 2.7 S 7 9 4 5 1026.8 1027.1 0.0
26/03:30pm 10.8 8.7 4.0 63 3.1 NNW 4 7 2 4 1027.0 1027.3 0.0
26/03:00pm 11.5 9.7 1.5 50 4.3 CALM 0 0 0 0 1027.2 1027.5 0.0
26/02:30pm 12.1 10.2 3.1 54 4.0 WNW 2 6 1 3 1027.0 1027.3 0.0
26/02:00pm 12.2 10.0 1.2 47 4.7 WNW 2 6 1 3 1027.1 1027.4 0.0
26/01:30pm 11.3 8.3 1.0 49 4.4 WNW 6 9 3 5 1027.7 1028.0 0.0
26/01:00pm 10.9 9.1 1.2 51 4.1 CALM 0 0 0 0 1028.1 1028.4 0.0
26/12:30pm 10.7 7.9 -0.4 46 4.5 NW 4 7 2 4 1028.5 1028.8 0.0
26/12:00pm 9.5 7.2 0.7 54 3.6 W 2 6 1 3 1029.1 1029.4 0.0
26/11:30am 9.3 7.2 1.9 60 3.2 N 2 6 1 3 1029.8 1030.1 0.0
26/11:00am 7.4 4.4 0.8 63 2.7 N 6 9 3 5 1030.5 1030.9 0.0
26/10:30am 6.4 4.1 0.5 66 2.4 WNW 2 7 1 4 1030.9 1031.2 0.0
26/10:00am 5.9 4.1 1.2 72 1.9 CALM 0 0 0 0 1031.0 1031.3 0.0
26/09:30am 4.2 2.4 0.9 79 1.3 CALM 0 0 0 0 1031.4 1031.7 0.0
26/09:00am 2.1 0.2 0.5 89 0.6 CALM 0 0 0 0 1031.3 1031.6 0.2
26/08:30am 0.6 -1.7 0.5 99 0.0 S 2 7 1 4 1031.2 1031.5 0.0
26/08:00am -0.2 -3.6 -0.3 99 0.0 NE 7 11 4 6 1031.2 1031.5 0.0
26/07:30am -1.3 -3.5 -1.4 99 0.0 CALM 0 0 0 0 1031.2 1031.5 0.0
26/07:00am -1.1 -4.4 -1.2 99 0.0 S 6 7 3 4 1031.2 1031.5 0.0
26/06:30am -1.1 -3.3 -1.2 99 0.0 CALM 0 0 0 0 1031.0 1031.3 0.0
26/06:00am -0.5 -2.6 -0.6 99 0.0 CALM 0 4 0 2 1030.2 1030.6 0.0
26/05:30am -1.0 -3.5 -1.1 99 0.0 E 2 7 1 4 1030.1 1030.5 0.0
26/05:00am -0.4 -3.2 -0.5 99 0.0 ENE 4 6 2 3 1030.2 1030.6 0.0
26/04:30am -0.1 -2.1 -0.2 99 0.0 CALM 0 0 0 0 1030.5 1030.9 0.0
26/04:00am 0.2 -1.8 0.1 99 0.0 CALM 0 0 0 0 1030.8 1031.1 0.0
26/03:30am 0.3 -1.7 0.2 99 0.0 CALM 0 0 0 0 1030.9 1031.2 0.0
26/03:00am 0.9 -2.1 0.8 99 0.0 ENE 6 7 3 4 1031.0 1031.3 0.0
26/02:30am 1.3 -0.5 1.2 99 0.0 CALM 0 0 0 0 1031.2 1031.5 0.0
26/02:00am 1.6 -0.2 1.5 99 0.0 CALM 0 2 0 1 1031.0 1031.3 0.0
26/01:30am 1.6 -0.2 1.5 99 0.0 CALM 0 0 0 0 1031.1 1031.4 0.0
26/01:00am 2.4 0.8 2.3 99 0.0 CALM 0 0 0 0 1031.2 1031.5 0.0
26/12:30am 2.7 1.1 2.6 99 0.0 CALM 0 7 0 4 1031.2 1031.5 0.0
26/12:00am 3.8 2.4 3.7 99 0.0 CALM 0 0 0 0 1031.2 1031.5 0.0
 
Date/Time
EST
Temp
°C
App
Temp
°C
Dew
Point
Rel
Hum
%
Delta-T
°C
Wind Press
QNH
hPa
Press
MSL
hPa
Rain
since 9 am
mm
Dir
 
Spd
km/h
Gust
km/h
Spd
kts
Gust
kts
25/11:30pm 4.4 3.1 4.3 99 0.0 CALM 0 0 0 0 1031.1 1031.4 0.0
25/11:00pm 4.6 3.4 4.5 99 0.0 CALM 0 4 0 2 1031.1 1031.4 0.0
25/10:30pm 5.7 3.6 5.6 99 0.0 NNE 6 7 3 4 1031.2 1031.5 0.0
25/10:00pm 5.5 3.3 5.4 99 0.0 SW 6 7 3 4 1031.3 1031.6 0.0
25/09:30pm 5.5 4.5 5.4 99 0.0 CALM 0 2 0 1 1031.5 1031.8 0.0
25/09:00pm 5.8 4.8 5.7 99 0.0 CALM 0 0 0 0 1031.5 1031.8 0.0
25/08:30pm 5.6 4.2 5.5 99 0.0 ENE 2 7 1 4 1031.2 1031.5 0.0
25/08:00pm 6.3 4.3 6.2 99 0.0 NNE 6 7 3 4 1031.2 1031.5 0.0
25/07:30pm 6.5 5.2 6.2 98 0.1 NNE 2 6 1 3 1030.9 1031.2 0.0
25/07:00pm 6.9 4.8 6.8 99 0.0 NNE 7 9 4 5 1030.6 1031.0 0.0
25/06:30pm 7.6 5.8 7.3 98 0.1 NE 6 7 3 4 1030.4 1030.8 0.0
25/06:00pm 7.7 6.3 7.1 96 0.3 S 4 9 2 5 1030.2 1030.6 0.0
25/05:30pm 9.0 8.3 6.8 86 1.0 CALM 0 0 0 0 1030.0 1030.4 0.0
25/05:00pm 9.5 8.2 6.2 80 1.5 NE 2 6 1 3 1029.7 1030.0 0.0
25/04:30pm 11.0 10.2 6.4 73 2.2 CALM 0 0 0 0 1029.9 1030.2 0.0
25/04:00pm 10.8 9.6 4.7 66 2.8 CALM 0 0 0 0 1030.1 1030.5 0.0
25/03:30pm 11.0 9.8 4.7 65 2.9 CALM 0 0 0 0 1030.3 1030.7 0.0
25/03:00pm 11.0 9.1 5.1 67 2.7 WNW 4 7 2 4 1030.5 1030.9 0.0
25/02:30pm 11.2 9.4 3.5 59 3.5 WNW 2 6 1 3 1030.9 1031.2 0.0
25/02:00pm 11.5 9.0 4.0 60 3.4 WSW 6 9 3 5 1030.9 1031.2 0.0
25/01:30pm 11.6 8.9 3.9 59 3.5 WSW 7 13 4 7 1031.2 1031.5 0.0
25/01:00pm 11.7 10.0 4.2 60 3.4 SW 2 7 1 4 1031.6 1031.9 0.0
25/12:30pm 9.7 6.7 4.1 68 2.5 WNW 9 9 5 5 1032.0 1032.3 0.0

Other Formats:

Comma delimited format used in spreadsheet applications
http://www.bom.gov.au/fwo/IDN60801/IDN60801.94919.axf

JavaScript Object Notation format (JSON) in row-major order
http://www.bom.gov.au/fwo/IDN60801/IDN60801.94919.json